Time;durP1;ratioP1;P1;durP2;ratioP2;P2;SDS_P1;SDS_P2;PMS_P1;PMS_P2;Temp;Humidity;BMP_temperature;BMP_pressure;BME280_temperature;BME280_humidity;BME280_pressure;Samples;Min_cycle;Max_cycle;Signal;HPM_P1;HPM_P2
2021/12/24 00:01:13;;;;;;;8.80;3.75;;;-9.50;93.40;;;;;;4994097;28;20483;-77
2021/12/24 00:03:39;;;;;;;6.38;4.00;;;-9.50;93.40;;;;;;4993982;28;20026;-78
2021/12/24 00:06:07;;;;;;;10.40;4.28;;;-9.40;93.40;;;;;;4993909;28;20108;-77
2021/12/24 00:08:33;;;;;;;6.70;4.88;;;-9.40;93.40;;;;;;4994075;28;20026;-77
2021/12/24 00:11:01;;;;;;;5.25;3.08;;;-9.40;93.30;;;;;;4994115;28;20480;-78
2021/12/24 00:13:30;;;;;;;8.23;3.65;;;-9.40;93.30;;;;;;4992511;28;20050;-77
2021/12/24 00:18:42;;;;;;;5.88;4.15;;;-9.40;93.30;;;;;;4983227;28;20042;-78
2021/12/24 00:37:25;;;;;;;5.03;3.95;;;-9.50;93.10;;;;;;4993952;28;20054;-77
2021/12/24 00:42:35;;;;;;;8.23;3.22;;;-9.60;93.20;;;;;;4993872;28;20049;-77
2021/12/24 00:45:02;;;;;;;6.00;4.03;;;-9.60;93.30;;;;;;4993922;28;20018;-76
2021/12/24 00:47:27;;;;;;;5.07;3.63;;;-9.60;93.40;;;;;;4993577;28;20026;-77
2021/12/24 00:49:54;;;;;;;6.30;4.30;;;-9.50;93.60;;;;;;4993457;28;20546;-78
2021/12/24 00:55:09;;;;;;;6.18;4.03;;;-9.40;93.80;;;;;;4993290;28;20053;-76
2021/12/24 00:57:37;;;;;;;8.07;3.95;;;-9.40;93.80;;;;;;4993899;28;20391;-77
2021/12/24 01:00:11;;;;;;;7.28;4.18;;;-9.40;93.70;;;;;;4976195;28;20046;-77
2021/12/24 01:02:37;;;;;;;4.22;2.47;;;-9.40;93.60;;;;;;4974351;28;20432;-77
2021/12/24 01:05:04;;;;;;;5.78;3.80;;;-9.40;93.60;;;;;;4980778;28;20023;-76
2021/12/24 01:07:30;;;;;;;5.30;3.17;;;-9.40;93.50;;;;;;5008708;28;20026;-78
2021/12/24 01:09:57;;;;;;;7.83;3.97;;;-9.40;93.50;;;;;;5008545;28;20030;-77
2021/12/24 01:12:24;;;;;;;6.93;3.22;;;-9.40;93.40;;;;;;4993487;28;20085;-76
2021/12/24 01:14:50;;;;;;;6.78;2.83;;;-9.50;93.30;;;;;;5008721;28;20161;-78
2021/12/24 01:19:59;;;;;;;7.07;3.90;;;-9.60;93.20;;;;;;4993775;28;20113;-76
2021/12/24 01:23:26;;;;;;;9.43;4.32;;;-9.60;93.10;;;;;;4993972;28;20533;-77
2021/12/24 01:38:48;;;;;;;2.65;2.03;;;-9.90;93.10;;;;;;4993204;28;20118;-77
2021/12/24 01:42:39;;;;;;;5.93;4.50;;;-9.90;93.20;;;;;;4991914;28;20026;-77
2021/12/24 01:43:59;;;;;;;7.43;4.05;;;-9.90;93.20;;;;;;4993491;28;20376;-77
2021/12/24 01:46:25;;;;;;;10.90;4.78;;;-9.90;93.20;;;;;;4994521;28;20019;-77
2021/12/24 01:48:51;;;;;;;8.50;5.18;;;-9.90;93.30;;;;;;4997076;28;20030;-77
2021/12/24 01:51:17;;;;;;;11.52;4.13;;;-9.90;93.30;;;;;;4997148;28;20030;-77
2021/12/24 01:53:42;;;;;;;8.77;4.07;;;-9.90;93.30;;;;;;4996793;28;20049;-77
2021/12/24 01:56:09;;;;;;;6.03;4.32;;;-9.90;93.60;;;;;;4997293;28;20025;-77
2021/12/24 01:58:35;;;;;;;6.65;4.10;;;-9.90;93.40;;;;;;4997360;28;20030;-77
2021/12/24 02:01:01;;;;;;;7.70;4.55;;;-9.90;93.40;;;;;;4997625;28;20105;-77
2021/12/24 02:03:26;;;;;;;10.30;3.95;;;-9.80;93.50;;;;;;4996446;28;20124;-76
2021/12/24 02:05:53;;;;;;;4.68;3.53;;;-9.80;93.60;;;;;;4996524;28;20026;-78
2021/12/24 02:08:19;;;;;;;7.35;4.45;;;-9.80;93.70;;;;;;4996564;28;20018;-77
2021/12/24 02:10:45;;;;;;;11.48;4.45;;;-9.80;93.70;;;;;;4996288;28;20089;-76
2021/12/24 02:13:13;;;;;;;10.48;5.15;;;-9.80;93.70;;;;;;4995004;28;20042;-76
2021/12/24 02:16:05;;;;;;;9.30;6.40;;;-9.70;93.80;;;;;;4996400;28;20027;-76
2021/12/24 02:29:23;;;;;;;6.63;5.15;;;-9.60;93.70;;;;;;4995984;28;20088;-77
2021/12/24 02:31:49;;;;;;;7.28;3.65;;;-9.60;93.90;;;;;;4996188;28;20093;-77
2021/12/24 02:34:15;;;;;;;5.50;3.20;;;-9.60;93.70;;;;;;4995159;28;20037;-79
2021/12/24 02:36:40;;;;;;;4.53;2.78;;;-9.50;93.90;;;;;;5011155;28;20050;-76
2021/12/24 02:39:06;;;;;;;8.52;5.35;;;-9.50;94.00;;;;;;4997657;28;20045;-76
2021/12/24 02:41:32;;;;;;;7.07;4.10;;;-9.50;94.10;;;;;;4996171;28;20026;-78
2021/12/24 02:43:58;;;;;;;9.23;4.40;;;-9.40;94.20;;;;;;4996010;28;20037;-78
2021/12/24 02:46:30;;;;;;;8.68;4.70;;;-9.40;94.10;;;;;;4995876;28;20472;-78
2021/12/24 02:49:04;;;;;;;14.45;6.07;;;-9.40;94.00;;;;;;4994584;28;20037;-78
2021/12/24 02:54:17;;;;;;;6.35;4.10;;;-9.30;93.70;;;;;;4994391;28;20069;-77
2021/12/24 02:56:53;;;;;;;4.78;3.42;;;-9.30;93.80;;;;;;4995388;28;20026;-77
2021/12/24 02:59:25;;;;;;;6.25;3.00;;;-9.30;94.00;;;;;;4995337;28;20065;-77
2021/12/24 03:01:51;;;;;;;7.63;4.75;;;-9.30;94.20;;;;;;4994145;28;20038;-77
2021/12/24 03:04:17;;;;;;;8.45;3.72;;;-9.30;94.10;;;;;;5010359;28;20019;-78
2021/12/24 03:06:46;;;;;;;12.15;5.95;;;-9.30;94.00;;;;;;5010369;28;20038;-78
2021/12/24 03:09:15;;;;;;;7.68;4.93;;;-9.20;94.00;;;;;;4995844;28;20033;-77
2021/12/24 03:11:43;;;;;;;10.00;5.28;;;-9.20;93.80;;;;;;4995675;28;20371;-79
2021/12/24 03:14:09;;;;;;;;;;;-9.20;93.80;;;;;;4995814;28;20034;-79
2021/12/24 03:16:37;;;;;;;6.38;3.88;;;-9.20;93.60;;;;;;4995089;28;20358;-76
2021/12/24 03:19:05;;;;;;;5.65;3.60;;;-9.20;93.60;;;;;;4994734;28;20065;-77
2021/12/24 03:21:48;;;;;;;7.28;5.07;;;-9.20;93.70;;;;;;4995066;28;20026;-76
2021/12/24 03:26:46;;;;;;;5.15;4.30;;;-9.20;93.80;;;;;;4995544;28;20505;-77
2021/12/24 03:29:15;;;;;;;5.70;2.85;;;-9.10;93.80;;;;;;4993685;28;20113;-79
2021/12/24 03:31:41;;;;;;;8.40;5.13;;;-9.10;93.70;;;;;;4995010;28;20038;-77
2021/12/24 03:34:13;;;;;;;9.38;4.93;;;-9.10;93.60;;;;;;4993478;28;20439;-77
2021/12/24 03:36:39;;;;;;;7.97;5.18;;;-9.10;93.70;;;;;;4994253;28;20125;-77
2021/12/24 03:39:07;;;;;;;5.20;4.10;;;-9.10;93.60;;;;;;4994936;28;20030;-76
2021/12/24 03:41:33;;;;;;;7.88;4.53;;;-9.10;93.60;;;;;;4994555;28;20040;-77
2021/12/24 03:44:00;;;;;;;8.43;4.13;;;-9.10;93.60;;;;;;4994994;28;20029;-78
2021/12/24 03:46:42;;;;;;;;;;;-9.10;93.60;;;;;;4995313;28;20019;-77
2021/12/24 03:49:17;;;;;;;7.60;5.45;;;-9.10;93.40;;;;;;4994800;28;19945;-78
2021/12/24 03:52:16;;;;;;;5.05;4.45;;;-9.10;93.30;;;;;;4994612;28;20045;-77
2021/12/24 03:57:16;;;;;;;9.65;4.90;;;-9.20;93.20;;;;;;4994866;28;20090;-78
2021/12/24 03:59:42;;;;;;;8.55;3.70;;;-9.20;93.20;;;;;;4994712;28;20105;-77
2021/12/24 04:02:08;;;;;;;10.18;5.18;;;-9.20;93.30;;;;;;4994538;28;20124;-77
2021/12/24 04:04:34;;;;;;;9.75;5.68;;;-9.20;93.50;;;;;;4994681;28;20027;-76
2021/12/24 04:06:59;;;;;;;9.00;5.28;;;-9.20;93.40;;;;;;4994561;28;20039;-78
2021/12/24 04:09:28;;;;;;;8.15;5.00;;;-9.20;93.40;;;;;;4994362;28;20126;-76
2021/12/24 04:11:54;;;;;;;9.55;5.15;;;-9.20;93.70;;;;;;5009336;28;20518;-78
2021/12/24 04:14:19;;;;;;;9.95;4.80;;;-9.20;93.40;;;;;;4994235;28;20030;-76
2021/12/24 04:16:45;;;;;;;8.73;4.70;;;-9.20;93.30;;;;;;4994225;28;20105;-76
2021/12/24 04:24:56;;;;;;;3.78;3.42;;;-9.20;93.20;;;;;;4994210;28;20133;-76
2021/12/24 04:27:37;;;;;;;7.45;5.72;;;-9.20;93.20;;;;;;4994160;28;20503;-76
2021/12/24 04:30:19;;;;;;;8.63;4.90;;;-9.20;93.30;;;;;;4994076;28;20037;-76
2021/12/24 04:35:31;;;;;;;8.52;5.53;;;-9.20;93.10;;;;;;4995941;28;20034;-77
2021/12/24 04:51:27;;;;;;;10.68;6.13;;;-9.30;93.30;;;;;;4994893;28;20458;-79
2021/12/24 05:02:36;;;;;;;9.57;5.00;;;-9.20;93.70;;;;;;4992484;28;20037;-77
2021/12/24 05:05:11;;;;;;;10.77;5.72;;;-9.20;93.80;;;;;;4993686;28;20040;-79
2021/12/24 05:10:21;;;;;;;9.88;4.50;;;-9.10;94.00;;;;;;4993494;28;20022;-79
2021/12/24 05:12:47;;;;;;;10.88;5.72;;;-9.10;94.00;;;;;;4993612;28;20042;-79
2021/12/24 05:15:13;;;;;;;11.60;6.35;;;-9.00;94.10;;;;;;4993867;28;20026;-79
2021/12/24 05:18:05;;;;;;;9.27;4.82;;;-9.00;94.10;;;;;;4993265;28;20030;-77
2021/12/24 05:23:15;;;;;;;11.50;5.70;;;-8.90;94.10;;;;;;4997239;28;20034;-78
2021/12/24 05:25:47;;;;;;;10.10;6.13;;;-8.80;94.00;;;;;;4995681;28;20356;-77
2021/12/24 05:28:13;;;;;;;10.05;4.90;;;-8.80;94.00;;;;;;4995788;28;20038;-79
2021/12/24 05:30:40;;;;;;;6.97;4.30;;;-8.80;94.00;;;;;;4997366;28;20365;-79
2021/12/24 05:33:11;;;;;;;10.07;5.57;;;-8.80;93.90;;;;;;4997660;28;20046;-77
2021/12/24 05:35:37;;;;;;;8.40;4.55;;;-8.70;94.00;;;;;;4997667;28;20037;-77
2021/12/24 05:38:02;;;;;;;12.57;6.72;;;-8.70;94.10;;;;;;4997530;28;20046;-77
2021/12/24 05:40:28;;;;;;;11.55;5.88;;;-8.60;94.10;;;;;;4997833;28;20030;-78
2021/12/24 05:42:54;;;;;;;10.02;4.82;;;-8.60;93.90;;;;;;4997656;28;20026;-79
2021/12/24 05:45:20;;;;;;;6.78;3.80;;;-8.60;93.90;;;;;;4997659;28;20026;-78
2021/12/24 05:47:45;;;;;;;10.30;6.57;;;-8.60;93.60;;;;;;4997116;28;20081;-78
2021/12/24 05:50:11;;;;;;;9.73;5.40;;;-8.60;93.20;;;;;;4996795;28;20023;-77
2021/12/24 05:52:37;;;;;;;7.75;4.90;;;-8.70;93.30;;;;;;4996504;28;20046;-80
2021/12/24 05:55:04;;;;;;;7.43;3.65;;;-8.70;93.40;;;;;;4997272;28;20030;-78
2021/12/24 05:57:30;;;;;;;7.00;4.13;;;-8.70;93.50;;;;;;4997338;28;20030;-80
2021/12/24 05:59:56;;;;;;;8.75;5.03;;;-8.70;93.50;;;;;;4999600;28;20046;-78
2021/12/24 06:02:22;;;;;;;14.35;8.82;;;-8.70;93.60;;;;;;4999029;28;20073;-79
2021/12/24 06:04:48;;;;;;;13.15;5.30;;;-8.60;93.80;;;;;;4997254;28;20050;-80
2021/12/24 06:07:14;;;;;;;10.32;5.30;;;-8.60;94.00;;;;;;4997055;28;20423;-79
2021/12/24 06:09:39;;;;;;;9.98;4.80;;;-8.50;94.20;;;;;;4996766;28;20100;-78
2021/12/24 06:12:05;;;;;;;9.20;4.75;;;-8.50;94.10;;;;;;4996637;28;20078;-80
2021/12/24 06:14:31;;;;;;;9.43;4.65;;;-8.40;94.10;;;;;;4996764;28;20018;-79
2021/12/24 06:17:09;;;;;;;6.72;4.30;;;-8.40;94.20;;;;;;5012116;28;20577;-79
2021/12/24 06:19:35;;;;;;;9.30;5.32;;;-8.40;94.00;;;;;;4997170;28;20026;-80
2021/12/24 06:22:01;;;;;;;10.88;5.53;;;-8.40;94.10;;;;;;4997153;28;20045;-79
2021/12/24 06:24:27;;;;;;;9.82;5.40;;;-8.40;94.10;;;;;;4999257;28;20388;-79
2021/12/24 06:26:53;;;;;;;9.75;4.93;;;-8.30;94.00;;;;;;4996585;28;20038;-79
2021/12/24 06:29:20;;;;;;;9.98;5.35;;;-8.30;94.00;;;;;;4997529;28;20084;-79
2021/12/24 06:31:47;;;;;;;7.72;4.97;;;-8.20;94.00;;;;;;4998701;28;20026;-79
2021/12/24 06:34:12;;;;;;;10.48;6.28;;;-8.20;93.90;;;;;;4996408;28;20026;-80
2021/12/24 06:36:42;;;;;;;11.57;5.53;;;-8.20;93.90;;;;;;4996562;28;20506;-80
2021/12/24 06:39:08;;;;;;;9.05;5.13;;;-8.10;93.90;;;;;;4996122;28;20471;-79
2021/12/24 06:41:35;;;;;;;12.95;5.00;;;-8.10;94.00;;;;;;4994740;28;20027;-80
2021/12/24 06:44:03;;;;;;;4.93;3.00;;;-8.10;94.00;;;;;;4996324;28;20026;-79
2021/12/24 06:46:29;;;;;;;7.82;5.10;;;-8.10;93.80;;;;;;4995828;28;20022;-79
2021/12/24 06:48:56;;;;;;;6.60;4.70;;;-8.10;93.70;;;;;;4996528;28;20073;-79
2021/12/24 06:51:26;;;;;;;12.68;6.63;;;-8.10;93.70;;;;;;4995801;28;20023;-79
2021/12/24 06:53:53;;;;;;;7.05;4.50;;;-8.10;93.70;;;;;;4995850;28;20034;-79
2021/12/24 06:56:19;;;;;;;12.25;5.55;;;-8.10;93.80;;;;;;4995206;28;20058;-80
2021/12/24 06:58:45;;;;;;;9.30;4.95;;;-8.10;93.50;;;;;;4995489;28;20057;-78
2021/12/24 07:01:11;;;;;;;7.07;4.47;;;-8.10;93.60;;;;;;4990655;28;20467;-78
2021/12/24 07:03:40;;;;;;;10.75;5.10;;;-8.10;93.60;;;;;;4992241;28;20494;-78
2021/12/24 07:06:06;;;;;;;9.98;5.80;;;-8.10;93.20;;;;;;4994044;28;20142;-80
2021/12/24 07:08:32;;;;;;;8.57;4.78;;;-8.20;93.10;;;;;;4995663;28;20030;-79
2021/12/24 07:10:58;;;;;;;12.27;5.47;;;-8.20;93.50;;;;;;4995620;28;20472;-79
2021/12/24 07:13:25;;;;;;;5.85;5.15;;;-8.20;93.60;;;;;;4995383;28;20075;-79
2021/12/24 07:15:51;;;;;;;9.90;5.53;;;-8.20;93.60;;;;;;4995469;28;20348;-81
2021/12/24 07:18:17;;;;;;;11.98;6.15;;;-8.20;93.70;;;;;;4995171;28;20294;-80
2021/12/24 07:20:43;;;;;;;7.43;5.22;;;-8.20;93.70;;;;;;4995454;28;20049;-80
2021/12/24 07:23:09;;;;;;;12.15;6.03;;;-8.20;93.80;;;;;;4995020;28;20026;-82
2021/12/24 07:25:35;;;;;;;11.93;6.50;;;-8.20;93.80;;;;;;4995533;28;20352;-82
2021/12/24 07:28:01;;;;;;;10.32;5.03;;;-8.10;93.80;;;;;;4995756;28;20026;-80
2021/12/24 07:30:27;;;;;;;6.05;4.00;;;-8.10;93.80;;;;;;4995497;28;20023;-80
2021/12/24 07:32:54;;;;;;;8.20;4.30;;;-8.00;93.70;;;;;;4996056;28;20376;-79
2021/12/24 07:35:19;;;;;;;8.65;4.82;;;-8.00;93.60;;;;;;4998463;28;20460;-80
2021/12/24 07:37:45;;;;;;;8.05;4.00;;;-7.90;93.50;;;;;;5007642;28;20053;-81
2021/12/24 07:40:16;;;;;;;9.80;6.45;;;-7.90;93.40;;;;;;5005890;28;20102;-80
2021/12/24 07:42:43;;;;;;;10.93;5.57;;;-7.90;93.30;;;;;;5004348;28;20023;-81
2021/12/24 07:45:10;;;;;;;9.30;5.97;;;-7.90;93.20;;;;;;5000231;28;20030;-80
2021/12/24 07:47:40;;;;;;;;;;;-7.90;93.10;;;;;;4997482;28;20038;-80
2021/12/24 07:52:54;;;;;;;6.47;4.95;;;-7.90;92.90;;;;;;4995835;28;20046;-80
2021/12/24 07:55:20;;;;;;;12.02;6.30;;;-7.90;92.70;;;;;;4995321;28;20018;-81
2021/12/24 07:57:49;;;;;;;8.35;4.82;;;-7.90;92.80;;;;;;4994569;28;20026;-79
2021/12/24 08:00:17;;;;;;;12.40;5.85;;;-7.90;93.00;;;;;;5009604;28;20034;-80
2021/12/24 08:02:43;;;;;;;9.40;5.10;;;-7.80;93.00;;;;;;4994701;28;20045;-82
2021/12/24 08:05:13;;;;;;;4.35;3.17;;;-7.80;93.10;;;;;;4994808;28;20030;-81
2021/12/24 08:07:39;;;;;;;13.80;6.45;;;-7.70;92.90;;;;;;4994431;28;20076;-81
2021/12/24 08:10:05;;;;;;;12.15;6.25;;;-7.80;92.40;;;;;;4994864;28;20022;-80
2021/12/24 08:12:31;;;;;;;10.27;5.53;;;-7.80;92.60;;;;;;4994513;28;20403;-81
2021/12/24 08:14:56;;;;;;;6.07;2.78;;;-7.70;92.90;;;;;;4994637;28;20018;-80
2021/12/24 08:17:22;;;;;;;9.48;5.07;;;-7.70;93.10;;;;;;4995467;28;20030;-80
2021/12/24 08:19:48;;;;;;;11.35;6.03;;;-7.70;93.00;;;;;;4994268;28;20033;-82
2021/12/24 08:22:14;;;;;;;8.50;4.60;;;-7.60;93.00;;;;;;4994525;28;20029;-80
2021/12/24 08:24:40;;;;;;;11.88;6.15;;;-7.60;92.80;;;;;;4993263;28;20033;-80
2021/12/24 08:27:07;;;;;;;9.88;6.63;;;-7.60;92.90;;;;;;4994710;28;20105;-80
2021/12/24 08:29:34;;;;;;;6.03;5.45;;;-7.50;92.90;;;;;;4994763;28;20498;-82
2021/12/24 08:32:01;;;;;;;10.07;4.65;;;-7.50;92.80;;;;;;4994242;28;20077;-80
2021/12/24 08:34:27;;;;;;;11.18;6.18;;;-7.50;92.80;;;;;;4994555;28;20105;-82
2021/12/24 08:36:53;;;;;;;10.02;5.82;;;-7.50;92.80;;;;;;4994626;28;20062;-80
2021/12/24 08:39:20;;;;;;;11.75;7.13;;;-7.40;92.90;;;;;;4994277;28;20081;-81
2021/12/24 08:41:46;;;;;;;9.65;5.93;;;-7.40;92.90;;;;;;4994889;28;20029;-79
2021/12/24 08:44:13;;;;;;;6.82;5.50;;;-7.30;92.70;;;;;;4997451;28;20398;-82
2021/12/24 08:46:39;;;;;;;8.95;5.00;;;-7.30;92.50;;;;;;4998633;28;20057;-80
2021/12/24 08:49:05;;;;;;;11.60;6.13;;;-7.30;92.50;;;;;;4998395;28;20026;-80
2021/12/24 08:51:32;;;;;;;15.07;7.20;;;-7.30;92.40;;;;;;4999607;28;20030;-80
2021/12/24 08:53:58;;;;;;;9.45;5.50;;;-7.30;92.50;;;;;;4995737;28;20029;-82
2021/12/24 08:56:24;;;;;;;8.32;5.68;;;-7.30;92.60;;;;;;4995834;28;20030;-81
2021/12/24 08:58:50;;;;;;;11.68;7.30;;;-7.20;92.60;;;;;;5015493;28;20036;-82
2021/12/24 09:01:16;;;;;;;9.38;6.15;;;-7.20;92.60;;;;;;5015516;28;20018;-81
2021/12/24 09:03:42;;;;;;;9.80;5.38;;;-7.10;92.40;;;;;;5000109;28;20106;-81
2021/12/24 09:06:08;;;;;;;7.50;4.55;;;-7.10;92.40;;;;;;5015796;28;20093;-82
2021/12/24 09:08:35;;;;;;;13.52;5.22;;;-7.10;92.40;;;;;;5000905;28;20116;-82
2021/12/24 09:11:02;;;;;;;6.68;4.40;;;-7.10;92.50;;;;;;5000279;28;20026;-80
2021/12/24 09:13:27;;;;;;;15.40;6.72;;;-7.10;92.50;;;;;;5000312;28;20448;-80
2021/12/24 09:15:54;;;;;;;11.52;6.53;;;-7.00;92.40;;;;;;5000072;28;20477;-81
2021/12/24 09:18:20;;;;;;;8.77;6.03;;;-7.00;92.50;;;;;;4999784;28;20082;-81
2021/12/24 09:20:47;;;;;;;14.47;7.60;;;-7.00;91.80;;;;;;5000073;28;20042;-80
2021/12/24 09:23:13;;;;;;;10.45;5.68;;;-7.00;92.00;;;;;;4998728;28;20268;-80
2021/12/24 09:25:40;;;;;;;11.38;6.70;;;-7.00;92.20;;;;;;5000542;28;20026;-80
2021/12/24 09:28:07;;;;;;;10.02;6.85;;;-7.00;92.20;;;;;;5000335;28;20054;-81
2021/12/24 09:30:33;;;;;;;;;;;-6.90;92.20;;;;;;5000987;28;20109;-82
2021/12/24 09:33:00;;;;;;;12.48;5.80;;;-6.90;92.00;;;;;;5000438;28;19921;-79
2021/12/24 09:35:26;;;;;;;9.10;6.53;;;-6.90;91.80;;;;;;4998853;28;20115;-82
2021/12/24 09:37:54;;;;;;;11.77;6.97;;;-6.90;92.10;;;;;;4999977;28;20125;-80
2021/12/24 09:40:20;;;;;;;15.15;6.90;;;-6.90;92.30;;;;;;5000205;28;20046;-80
2021/12/24 09:42:46;;;;;;;10.43;7.15;;;-6.80;92.40;;;;;;5000775;28;20116;-81
2021/12/24 09:45:13;;;;;;;12.25;6.53;;;-6.70;92.50;;;;;;5002203;28;20134;-81
2021/12/24 09:47:39;;;;;;;9.15;5.45;;;-6.70;92.30;;;;;;5006917;28;20025;-81
2021/12/24 09:50:07;;;;;;;12.30;6.90;;;-6.70;92.20;;;;;;5009817;28;20026;-79
2021/12/24 09:52:34;;;;;;;8.85;6.15;;;-6.70;91.90;;;;;;5003276;28;20129;-80
2021/12/24 09:55:14;;;;;;;13.63;6.95;;;-6.70;91.70;;;;;;5000147;28;20361;-82
2021/12/24 09:57:42;;;;;;;13.93;8.38;;;-6.70;91.80;;;;;;4999620;28;20057;-80
2021/12/24 10:00:08;;;;;;;;;;;-6.70;91.90;;;;;;4998953;28;20026;-80
2021/12/24 10:02:42;;;;;;;11.15;5.70;;;-6.70;91.80;;;;;;4999795;28;20326;-81
2021/12/24 10:05:33;;;;;;;8.60;4.97;;;-6.70;91.70;;;;;;5000214;28;20022;-81
2021/12/24 10:08:07;;;;;;;11.75;6.53;;;-6.80;91.80;;;;;;4996121;28;20036;-81
2021/12/24 10:10:35;;;;;;;12.88;6.63;;;-6.80;91.40;;;;;;4995100;28;20027;-80
2021/12/24 10:13:38;;;;;;;12.70;7.55;;;-6.90;91.10;;;;;;4996374;28;20089;-81
2021/12/24 10:16:04;;;;;;;7.22;5.30;;;-6.90;91.40;;;;;;4996599;28;20360;-80
2021/12/24 10:18:36;;;;;;;14.93;8.90;;;-7.00;91.60;;;;;;4996490;28;20045;-81
2021/12/24 10:21:19;;;;;;;11.20;5.78;;;-7.00;91.50;;;;;;4995047;28;20057;-81
2021/12/24 10:23:51;;;;;;;8.10;5.22;;;-7.00;91.70;;;;;;4996570;28;20022;-80
2021/12/24 10:26:20;;;;;;;9.68;6.32;;;-7.00;91.90;;;;;;4997170;28;20042;-81
2021/12/24 10:29:03;;;;;;;14.60;7.43;;;-7.00;91.70;;;;;;4997587;28;20492;-82
2021/12/24 10:31:39;;;;;;;12.80;8.05;;;-7.00;91.70;;;;;;4997773;28;20023;-81
2021/12/24 10:34:15;;;;;;;13.30;7.00;;;-6.90;91.60;;;;;;5002048;28;20136;-80
2021/12/24 10:36:56;;;;;;;11.90;6.95;;;-6.90;91.40;;;;;;5009215;28;20073;-80
2021/12/24 10:39:35;;;;;;;14.50;6.65;;;-7.00;91.30;;;;;;4999833;28;20117;-79
2021/12/24 10:42:12;;;;;;;7.95;5.65;;;-7.00;91.20;;;;;;4995343;28;20026;-80
2021/12/24 10:44:40;;;;;;;12.50;6.53;;;-7.10;91.40;;;;;;4995052;28;20038;-79
2021/12/24 10:47:15;;;;;;;11.45;6.63;;;-7.10;91.40;;;;;;4996160;28;20081;-79
2021/12/24 10:53:33;;;;;;;14.73;6.65;;;-7.20;91.20;;;;;;4995645;28;20096;-80
2021/12/24 10:55:51;;;;;;;10.07;6.28;;;-7.20;91.60;;;;;;4998864;28;20038;-80
2021/12/24 10:58:24;;;;;;;9.90;4.93;;;-7.20;91.80;;;;;;4997750;28;20025;-81
2021/12/24 11:00:55;;;;;;;14.10;7.75;;;-7.20;91.70;;;;;;4997062;28;20109;-80
2021/12/24 11:03:23;;;;;;;18.20;8.55;;;-7.20;91.40;;;;;;4996659;28;20042;-79
2021/12/24 11:05:55;;;;;;;8.77;5.22;;;-7.20;91.70;;;;;;4997569;28;20460;-81
2021/12/24 11:08:27;;;;;;;15.48;7.25;;;-7.20;91.30;;;;;;4996205;28;20023;-80
2021/12/24 11:10:58;;;;;;;5.95;4.47;;;-7.20;91.40;;;;;;4994481;28;20034;-82
2021/12/24 11:13:45;;;;;;;10.23;5.50;;;-7.20;91.60;;;;;;4995435;28;20435;-79
2021/12/24 11:16:16;;;;;;;11.00;5.72;;;-7.20;91.50;;;;;;4995778;28;20091;-79
2021/12/24 11:18:46;;;;;;;8.50;6.05;;;-7.30;91.10;;;;;;4995019;28;20167;-79
2021/12/24 11:21:23;;;;;;;15.05;7.97;;;-7.30;91.10;;;;;;4993833;28;20076;-80
2021/12/24 11:23:49;;;;;;;11.50;7.47;;;-7.40;91.40;;;;;;4995683;28;20456;-81
2021/12/24 11:26:21;;;;;;;12.87;5.00;;;-7.40;91.50;;;;;;4995225;28;20459;-81
2021/12/24 11:28:47;;;;;;;13.45;7.32;;;-7.40;91.60;;;;;;4995166;28;20054;-81
2021/12/24 11:31:33;;;;;;;14.60;7.45;;;-7.40;91.70;;;;;;4996053;28;20023;-80
2021/12/24 11:34:00;;;;;;;9.30;5.47;;;-7.40;91.60;;;;;;4995272;28;20084;-80
2021/12/24 11:36:29;;;;;;;4.93;3.60;;;-7.40;91.50;;;;;;4995927;28;20045;-81
2021/12/24 11:38:57;;;;;;;18.33;7.10;;;-7.40;91.10;;;;;;4995977;28;20030;-81
2021/12/24 11:41:29;;;;;;;7.03;4.45;;;-7.50;91.20;;;;;;4996498;28;20019;-80
2021/12/24 11:43:56;;;;;;;12.00;7.28;;;-7.60;91.40;;;;;;4997704;28;20041;-81
2021/12/24 11:46:24;;;;;;;9.25;6.13;;;-7.60;91.20;;;;;;4995779;28;20160;-80
2021/12/24 11:48:53;;;;;;;14.65;8.40;;;-7.70;91.30;;;;;;4995817;28;20077;-82
2021/12/24 11:51:30;;;;;;;12.73;7.32;;;-7.70;91.60;;;;;;4995048;28;20030;-79
2021/12/24 11:54:03;;;;;;;16.92;9.57;;;-7.70;91.90;;;;;;4976661;28;20416;-81
2021/12/24 11:56:40;;;;;;;10.00;6.03;;;-7.70;92.00;;;;;;4976474;28;20380;-80
2021/12/24 11:59:06;;;;;;;15.65;8.15;;;-7.60;92.10;;;;;;4976723;28;20113;-80
2021/12/24 12:01:41;;;;;;;12.82;6.88;;;-7.60;92.20;;;;;;4974891;28;20035;-80
2021/12/24 12:04:22;;;;;;;13.57;6.82;;;-7.50;92.30;;;;;;4976168;28;20026;-80
2021/12/24 12:06:48;;;;;;;11.00;6.10;;;-7.50;92.10;;;;;;4976538;28;20500;-80
2021/12/24 12:09:14;;;;;;;10.82;5.90;;;-7.50;91.40;;;;;;4975055;28;20077;-80
2021/12/24 12:11:43;;;;;;;13.88;7.40;;;-7.60;91.70;;;;;;4973785;28;20114;-80
2021/12/24 12:14:13;;;;;;;15.52;7.38;;;-7.70;91.40;;;;;;4975083;28;20023;-80
2021/12/24 12:16:39;;;;;;;12.57;6.80;;;-7.70;91.80;;;;;;4973621;28;20034;-79
2021/12/24 12:19:26;;;;;;;11.63;6.45;;;-7.70;91.40;;;;;;4988509;28;20049;-81
2021/12/24 12:25:01;;;;;;;11.90;6.10;;;-7.90;91.50;;;;;;4996768;28;20030;-79
2021/12/24 12:27:29;;;;;;;15.85;8.88;;;-7.90;91.50;;;;;;4995244;28;20033;-81
2021/12/24 12:29:55;;;;;;;13.73;6.93;;;-7.90;91.80;;;;;;4994240;28;20110;-80
2021/12/24 12:32:21;;;;;;;15.32;8.60;;;-7.90;91.80;;;;;;4993594;28;20030;-80
2021/12/24 12:34:49;;;;;;;15.32;9.18;;;-7.90;91.60;;;;;;4994397;28;20026;-81
2021/12/24 12:37:19;;;;;;;15.90;6.93;;;-7.90;91.80;;;;;;4992668;28;20462;-81
2021/12/24 12:39:55;;;;;;;11.63;4.35;;;-7.90;91.90;;;;;;4992617;28;20022;-80
2021/12/24 12:42:24;;;;;;;25.60;10.10;;;-7.90;91.70;;;;;;4994358;28;20037;-78
2021/12/24 12:44:53;;;;;;;15.02;7.95;;;-8.00;91.80;;;;;;4993840;28;20105;-81
2021/12/24 12:47:21;;;;;;;9.80;5.13;;;-8.00;92.00;;;;;;4992785;28;20128;-79
2021/12/24 12:49:48;;;;;;;10.77;7.07;;;-7.90;92.00;;;;;;4994027;28;20018;-80
2021/12/24 12:52:32;;;;;;;14.38;9.38;;;-7.90;91.90;;;;;;4993521;28;20106;-81
2021/12/24 12:54:58;;;;;;;9.25;4.88;;;-8.00;91.70;;;;;;5008600;28;20093;-80
2021/12/24 12:57:26;;;;;;;13.82;7.90;;;-8.00;91.90;;;;;;4993986;28;20022;-80
2021/12/24 13:00:07;;;;;;;7.80;5.32;;;-8.00;91.80;;;;;;4992602;28;20045;-80
2021/12/24 13:03:06;;;;;;;20.42;9.82;;;-8.10;92.00;;;;;;4991925;28;20026;-79
2021/12/24 13:05:41;;;;;;;10.07;6.82;;;-8.10;92.10;;;;;;4992771;28;20387;-81
2021/12/24 13:08:11;;;;;;;5.80;4.25;;;-8.10;91.70;;;;;;4993564;28;20041;-80
2021/12/24 13:10:38;;;;;;;20.67;9.23;;;-8.20;91.60;;;;;;4995132;28;20022;-81
2021/12/24 13:13:07;;;;;;;17.70;7.43;;;-8.20;91.90;;;;;;4995703;28;20049;-82
2021/12/24 13:15:46;;;;;;;17.85;9.82;;;-8.20;92.20;;;;;;4993622;28;20025;-82
2021/12/24 13:18:29;;;;;;;15.13;7.30;;;-8.20;92.40;;;;;;4993329;28;20029;-81
2021/12/24 13:23:35;;;;;;;12.18;6.35;;;-8.10;92.20;;;;;;4993942;28;20411;-80
2021/12/24 13:26:14;;;;;;;15.50;8.82;;;-8.20;92.20;;;;;;4995888;28;20037;-80
2021/12/24 13:28:59;;;;;;;14.07;6.97;;;-8.10;92.20;;;;;;4996378;28;20031;-79
2021/12/24 13:31:26;;;;;;;15.85;7.28;;;-8.10;91.70;;;;;;5002053;28;20033;-78
2021/12/24 13:33:52;;;;;;;12.13;5.90;;;-8.20;92.00;;;;;;4996566;28;20038;-80
2021/12/24 13:36:27;;;;;;;11.70;7.82;;;-8.20;92.10;;;;;;4995203;28;20513;-80
2021/12/24 13:38:53;;;;;;;12.20;7.30;;;-8.20;92.20;;;;;;4995507;28;20038;-82
2021/12/24 13:41:24;;;;;;;11.90;7.20;;;-8.30;92.40;;;;;;4993805;28;20022;-79
2021/12/24 13:43:50;;;;;;;16.65;10.15;;;-8.20;92.50;;;;;;4994800;28;20100;-80
2021/12/24 13:46:16;;;;;;;13.45;6.68;;;-8.20;92.40;;;;;;4996891;28;20419;-81
2021/12/24 13:49:15;;;;;;;12.05;6.57;;;-8.20;92.20;;;;;;4996906;28;20034;-82
2021/12/24 13:54:35;;;;;;;12.70;7.57;;;-8.20;92.20;;;;;;5012680;28;20129;-80
2021/12/24 13:57:04;;;;;;;11.55;7.07;;;-8.10;92.40;;;;;;4977758;28;20023;-82
2021/12/24 13:59:31;;;;;;;10.93;5.35;;;-8.20;92.20;;;;;;4977074;28;20027;-81
2021/12/24 14:01:57;;;;;;;15.75;7.63;;;-8.20;92.30;;;;;;4977246;28;20118;-79
2021/12/24 14:04:23;;;;;;;14.85;8.10;;;-8.10;92.30;;;;;;4977235;28;20447;-79
2021/12/24 14:06:55;;;;;;;19.73;9.80;;;-8.10;92.40;;;;;;4991964;28;20519;-81
2021/12/24 14:09:30;;;;;;;16.85;8.90;;;-8.10;92.00;;;;;;4976013;28;20081;-81
2021/12/24 14:11:57;;;;;;;18.13;10.75;;;-8.10;92.30;;;;;;4976759;28;20069;-79
2021/12/24 14:14:31;;;;;;;;;;;-8.10;92.00;;;;;;4977104;28;20480;-79
2021/12/24 14:18:04;;;;;;;10.52;6.78;;;-8.20;91.70;;;;;;4976563;28;20451;-81
2021/12/24 14:22:20;;;;;;;10.75;6.97;;;-8.30;92.00;;;;;;4996689;28;20026;-82
2021/12/24 14:24:54;;;;;;;12.32;8.15;;;-8.30;92.10;;;;;;4996574;28;20027;-81
2021/12/24 14:27:23;;;;;;;13.90;8.93;;;-8.40;92.00;;;;;;4996359;28;20022;-78
2021/12/24 14:30:03;;;;;;;19.15;10.02;;;-8.40;92.00;;;;;;4996797;28;20030;-80
2021/12/24 14:32:34;;;;;;;16.35;9.75;;;-8.50;92.30;;;;;;5011781;28;20084;-80
2021/12/24 14:35:15;;;;;;;10.95;6.68;;;-8.50;92.50;;;;;;4997368;28;20022;-81
2021/12/24 14:37:53;;;;;;;16.15;6.72;;;-8.40;92.10;;;;;;4997161;28;20391;-80
2021/12/24 14:40:20;;;;;;;8.20;5.40;;;-8.50;92.30;;;;;;4994806;28;20096;-79
2021/12/24 14:42:47;;;;;;;;;;;-8.40;92.30;;;;;;4996991;28;20027;-80
2021/12/24 14:45:13;;;;;;;14.15;7.85;;;-8.40;92.40;;;;;;4996113;28;20387;-79
2021/12/24 14:47:40;;;;;;;14.52;6.97;;;-8.40;92.10;;;;;;4996438;28;20057;-80